Terminal Aerodrome Forecast
Issued by NWS Binghamton, NY

Home | Current Version | Previous Version | Text Only | Print | Product List | Glossary On
Versions: 1 2 3 4 5 6 7 8 9 10 11 12 13 14 15 16 17 18
000
FTUS41 KBGM 210500
TAFSYR
TAF
KSYR 210536Z 2106/2206 17012G24KT P6SM SCT060 BKN250
      TEMPO 2108/2112 BKN040
     FM211400 21015G25KT P6SM OVC045 PROB30 2117/2121 4SM -TSRA BR
      OVC025CB
     FM212100 28008KT P6SM SCT025 BKN050
     FM220300 30008KT P6SM OVC025=

USA.gov is the U.S. government's official web portal to all federal, state and local government web resources and services.